createdAt,value
2022-07-25T00:00:27.681Z,8.70
2022-07-25T00:02:54.534Z,8.55
2022-07-25T00:05:21.587Z,8.30
2022-07-25T00:07:49.197Z,8.43
2022-07-25T00:10:16.894Z,8.55
2022-07-25T00:12:44.136Z,8.60
2022-07-25T00:15:12.375Z,8.35
2022-07-25T00:17:53.027Z,9.38
2022-07-25T00:20:20.020Z,8.82
2022-07-25T00:22:46.855Z,9.35
2022-07-25T00:25:14.081Z,8.77
2022-07-25T00:27:40.941Z,9.45
2022-07-25T00:30:08.862Z,9.15
2022-07-25T00:32:35.702Z,9.25
2022-07-25T00:35:02.770Z,9.70
2022-07-25T00:37:29.677Z,9.50
2022-07-25T00:39:56.556Z,9.10
2022-07-25T00:42:24.189Z,9.23
2022-07-25T00:44:52.230Z,9.57
2022-07-25T00:47:19.105Z,8.95
2022-07-25T00:49:45.960Z,10.13
2022-07-25T00:52:12.905Z,9.48
2022-07-25T00:54:39.806Z,9.48
2022-07-25T00:57:06.939Z,9.20
2022-07-25T00:59:33.908Z,9.18
2022-07-25T01:02:03.835Z,9.20
2022-07-25T01:04:31.094Z,9.77
2022-07-25T01:06:58.417Z,9.85
2022-07-25T01:09:26.479Z,10.63
2022-07-25T01:11:53.368Z,10.40
2022-07-25T01:14:20.269Z,9.90
2022-07-25T01:16:47.131Z,9.82
2022-07-25T01:19:15.829Z,9.07
2022-07-25T01:21:43.292Z,9.57
2022-07-25T01:24:10.457Z,9.55
2022-07-25T01:26:38.173Z,9.65
2022-07-25T01:29:05.781Z,9.30
2022-07-25T01:31:32.735Z,9.63
2022-07-25T01:33:59.660Z,9.38
2022-07-25T01:36:26.620Z,9.30
2022-07-25T01:38:54.155Z,9.43
2022-07-25T01:41:22.696Z,9.40
2022-07-25T01:43:49.962Z,10.57
2022-07-25T01:46:17.258Z,9.73
2022-07-25T01:48:44.311Z,10.15
2022-07-25T01:51:11.355Z,10.35
2022-07-25T01:53:38.328Z,10.18
2022-07-25T01:56:08.994Z,9.65
2022-07-25T01:58:37.894Z,10.10
2022-07-25T02:01:05.094Z,10.80
2022-07-25T02:03:32.128Z,10.02
2022-07-25T02:06:02.676Z,11.23
2022-07-25T02:08:31.222Z,10.95
2022-07-25T02:10:58.843Z,10.63
2022-07-25T02:13:26.573Z,10.68
2022-07-25T02:15:53.524Z,10.23
2022-07-25T02:18:20.864Z,10.60
2022-07-25T02:20:47.924Z,10.05
2022-07-25T02:23:14.785Z,10.80
2022-07-25T02:25:41.641Z,9.65
2022-07-25T02:28:10.537Z,10.45
2022-07-25T02:30:38.160Z,9.85
2022-07-25T02:33:05.151Z,10.30
2022-07-25T02:35:32.058Z,10.20
2022-07-25T02:37:58.990Z,10.05
2022-07-25T02:40:26.280Z,10.18
2022-07-25T02:42:53.157Z,10.07
2022-07-25T02:45:20.151Z,10.15
2022-07-25T02:47:47.026Z,10.32
2022-07-25T02:50:14.481Z,10.70
2022-07-25T02:52:42.738Z,10.50
2022-07-25T02:55:10.795Z,10.40
2022-07-25T02:57:38.052Z,11.60
2022-07-25T03:00:07.563Z,10.98
2022-07-25T03:02:34.594Z,11.13
2022-07-25T03:05:01.474Z,10.73
2022-07-25T03:07:28.357Z,10.18
2022-07-25T03:09:55.184Z,10.85
2022-07-25T03:12:22.131Z,11.27
2022-07-25T03:14:48.999Z,11.82
2022-07-25T03:17:16.077Z,11.07
2022-07-25T03:19:43.011Z,12.63
2022-07-25T03:22:10.281Z,10.93
2022-07-25T03:24:37.118Z,11.27
2022-07-25T03:27:04.053Z,11.55
2022-07-25T03:29:30.913Z,10.93
2022-07-25T03:31:59.368Z,11.20
2022-07-25T03:34:26.428Z,11.80
2022-07-25T03:36:53.411Z,11.68
2022-07-25T03:39:20.957Z,11.63
2022-07-25T03:41:48.099Z,11.38
2022-07-25T03:44:14.941Z,11.27
2022-07-25T03:46:41.862Z,11.73
2022-07-25T03:49:08.819Z,11.57
2022-07-25T03:51:35.730Z,11.48
2022-07-25T03:54:02.771Z,12.45
2022-07-25T03:56:43.470Z,11.98
2022-07-25T03:59:14.113Z,11.98
2022-07-25T04:01:42.010Z,11.75
2022-07-25T04:04:10.140Z,11.90
2022-07-25T04:06:38.472Z,11.57
2022-07-25T04:09:07.167Z,12.20
2022-07-25T04:11:35.786Z,12.07
2022-07-25T04:14:03.140Z,12.02
2022-07-25T04:16:31.242Z,11.68
2022-07-25T04:18:58.391Z,12.23
2022-07-25T04:21:27.504Z,12.50
2022-07-25T04:23:54.402Z,11.48
2022-07-25T04:26:21.242Z,12.38
2022-07-25T04:28:48.130Z,12.30
2022-07-25T04:31:15.420Z,11.68
2022-07-25T04:33:42.997Z,13.25
2022-07-25T04:36:10.227Z,12.85
2022-07-25T04:38:37.218Z,12.30
2022-07-25T04:41:04.827Z,12.43
2022-07-25T04:43:31.959Z,12.30
2022-07-25T04:45:59.588Z,13.18
2022-07-25T04:48:26.985Z,12.65
2022-07-25T04:50:54.070Z,11.98
2022-07-25T04:53:21.143Z,11.68
2022-07-25T04:55:48.061Z,11.90
2022-07-25T04:58:14.938Z,11.65
2022-07-25T05:00:41.963Z,12.13
2022-07-25T05:03:08.846Z,12.63
2022-07-25T05:05:35.873Z,12.40
2022-07-25T05:08:03.418Z,12.35
2022-07-25T05:10:30.724Z,12.05
2022-07-25T05:12:57.670Z,11.60
2022-07-25T05:15:24.860Z,11.27
2022-07-25T05:17:51.785Z,11.85
2022-07-25T05:20:18.828Z,11.60
2022-07-25T05:22:45.704Z,11.73
2022-07-25T05:25:13.366Z,11.85
2022-07-25T05:27:41.333Z,10.82
2022-07-25T05:30:11.053Z,11.13
2022-07-25T05:32:39.316Z,11.35
2022-07-25T05:35:08.557Z,10.80
2022-07-25T05:37:37.028Z,11.25
2022-07-25T05:40:06.490Z,11.63
2022-07-25T05:42:33.682Z,10.73
2022-07-25T05:45:01.253Z,10.57
2022-07-25T05:47:28.177Z,11.70
2022-07-25T05:49:55.169Z,11.60
2022-07-25T05:52:22.181Z,11.50
2022-07-25T05:54:49.407Z,11.18
2022-07-25T05:57:16.399Z,11.85
2022-07-25T05:59:43.335Z,13.25
2022-07-25T06:02:10.303Z,12.80
2022-07-25T06:04:37.326Z,11.77
2022-07-25T06:07:04.283Z,12.82
2022-07-25T06:09:32.014Z,13.13
2022-07-25T06:12:01.156Z,13.32
2022-07-25T06:14:29.532Z,12.63
2022-07-25T06:16:57.285Z,11.30
2022-07-25T06:19:25.226Z,12.88
2022-07-25T06:21:52.112Z,11.30
2022-07-25T06:24:19.012Z,11.82
2022-07-25T06:26:45.977Z,11.68
2022-07-25T06:29:12.847Z,12.02
2022-07-25T06:31:40.022Z,12.68
2022-07-25T06:34:07.429Z,12.30
2022-07-25T06:36:35.143Z,11.90
2022-07-25T06:39:02.512Z,12.13
2022-07-25T06:41:29.618Z,10.80
2022-07-25T06:43:56.441Z,11.50
2022-07-25T06:46:23.440Z,11.27
2022-07-25T06:48:50.421Z,11.73
2022-07-25T06:51:17.423Z,11.93
2022-07-25T06:53:44.272Z,11.43
2022-07-25T06:56:17.194Z,11.57
2022-07-25T06:58:44.763Z,11.43
2022-07-25T07:01:11.803Z,10.98
2022-07-25T07:03:40.197Z,9.73
2022-07-25T07:06:09.499Z,10.60
2022-07-25T07:08:37.685Z,10.18
2022-07-25T07:11:06.374Z,9.93
2022-07-25T07:13:34.371Z,10.98
2022-07-25T07:16:01.481Z,9.75
2022-07-25T07:18:28.634Z,10.02
2022-07-25T07:20:55.551Z,9.73
2022-07-25T07:23:22.438Z,9.07
2022-07-25T07:25:51.643Z,9.60
2022-07-25T07:28:18.788Z,9.48
2022-07-25T07:33:33.517Z,8.80
2022-07-25T07:36:01.924Z,9.10
2022-07-25T07:38:28.846Z,9.18
2022-07-25T07:40:55.697Z,9.07
2022-07-25T07:43:27.662Z,9.80
2022-07-25T07:45:59.407Z,10.02
2022-07-25T07:48:30.878Z,9.13
2022-07-25T07:50:58.806Z,8.60
2022-07-25T07:53:44.182Z,9.43
2022-07-25T07:56:12.151Z,9.27
2022-07-25T07:58:39.150Z,9.50
2022-07-25T08:01:06.881Z,9.02
2022-07-25T08:03:34.004Z,9.25
2022-07-25T08:06:00.856Z,9.50
2022-07-25T08:08:31.047Z,8.90
2022-07-25T08:10:59.354Z,9.32
2022-07-25T08:13:30.530Z,9.18
2022-07-25T08:15:59.831Z,8.73
2022-07-25T08:18:29.981Z,8.32
2022-07-25T08:20:57.421Z,8.43
2022-07-25T08:23:25.700Z,8.82
2022-07-25T08:25:52.706Z,8.38
2022-07-25T08:28:20.295Z,7.07
2022-07-25T08:30:48.098Z,8.57
2022-07-25T08:33:18.706Z,9.13
2022-07-25T08:35:48.724Z,8.38
2022-07-25T08:38:16.049Z,8.05
2022-07-25T08:40:43.020Z,8.32
2022-07-25T08:43:15.088Z,7.75
2022-07-25T08:45:47.408Z,8.23
2022-07-25T08:48:18.346Z,7.97
2022-07-25T08:50:47.153Z,8.20
2022-07-25T08:53:32.606Z,6.93
2022-07-25T08:56:00.324Z,8.20
2022-07-25T08:58:27.244Z,8.10
2022-07-25T09:00:54.177Z,7.00
2022-07-25T09:03:21.117Z,7.20
2022-07-25T09:05:48.243Z,6.70
2022-07-25T09:08:17.884Z,6.47
2022-07-25T09:10:51.862Z,6.53
2022-07-25T09:13:22.126Z,6.63
2022-07-25T09:15:52.399Z,7.43
2022-07-25T09:18:25.351Z,7.18
2022-07-25T09:20:59.654Z,7.50
2022-07-25T09:23:35.484Z,6.90
2022-07-25T09:26:14.729Z,6.85
2022-07-25T09:28:45.091Z,7.05
2022-07-25T09:31:13.757Z,6.80
2022-07-25T09:33:56.921Z,5.72
2022-07-25T09:36:24.275Z,6.13
2022-07-25T09:38:55.494Z,6.13
2022-07-25T09:41:22.663Z,6.35
2022-07-25T09:43:49.495Z,5.63
2022-07-25T09:46:16.761Z,6.10
2022-07-25T09:48:45.849Z,5.85
2022-07-25T09:51:12.941Z,6.40
2022-07-25T09:53:41.085Z,5.97
2022-07-25T09:56:08.752Z,6.63
2022-07-25T09:58:35.657Z,6.18
2022-07-25T10:01:06.799Z,6.55
2022-07-25T10:04:10.256Z,6.65
2022-07-25T10:06:47.822Z,6.68
2022-07-25T10:09:15.832Z,6.22
2022-07-25T10:12:07.226Z,6.50
2022-07-25T10:14:35.468Z,6.00
2022-07-25T10:17:03.538Z,6.55
2022-07-25T10:19:52.010Z,6.63
2022-07-25T10:22:46.608Z,6.03
2022-07-25T10:25:16.382Z,6.35
2022-07-25T10:27:49.305Z,6.13
2022-07-25T10:30:29.331Z,5.88
2022-07-25T10:33:06.678Z,6.40
2022-07-25T10:35:34.058Z,6.40
2022-07-25T10:38:05.970Z,6.20
2022-07-25T10:40:38.208Z,6.63
2022-07-25T10:43:12.813Z,6.07
2022-07-25T10:45:42.335Z,6.35
2022-07-25T10:48:13.544Z,6.20
2022-07-25T10:50:57.106Z,6.82
2022-07-25T10:53:43.844Z,6.38
2022-07-25T10:56:22.022Z,5.97
2022-07-25T10:58:58.533Z,6.22
2022-07-25T11:01:34.735Z,6.05
2022-07-25T11:04:15.595Z,6.20
2022-07-25T11:06:44.047Z,6.32
2022-07-25T11:09:21.584Z,6.18
2022-07-25T11:11:55.469Z,6.40
2022-07-25T11:14:24.171Z,6.45
2022-07-25T11:16:54.952Z,6.22
2022-07-25T11:19:28.993Z,6.28
2022-07-25T11:22:02.186Z,6.47
2022-07-25T11:24:40.516Z,6.22
2022-07-25T11:27:12.335Z,6.00
2022-07-25T11:29:40.588Z,5.70
2022-07-25T11:32:11.110Z,6.30
2022-07-25T11:34:43.971Z,5.97
2022-07-25T11:37:13.572Z,5.97
2022-07-25T11:39:44.697Z,5.60
2022-07-25T11:42:19.683Z,6.45
2022-07-25T11:44:52.837Z,6.47
2022-07-25T11:47:31.770Z,6.30
2022-07-25T11:50:04.362Z,6.35
2022-07-25T11:52:33.185Z,6.32
2022-07-25T11:55:04.479Z,6.10
2022-07-25T11:57:41.108Z,6.28
2022-07-25T12:00:20.815Z,6.28
2022-07-25T12:02:49.697Z,6.45
2022-07-25T12:05:23.378Z,6.20
2022-07-25T12:07:53.226Z,6.60
2022-07-25T12:10:34.181Z,6.18
2022-07-25T12:13:04.032Z,6.60
2022-07-25T12:15:35.672Z,6.20
2022-07-25T12:18:03.372Z,6.50
2022-07-25T12:20:36.346Z,6.30
2022-07-25T12:23:07.140Z,6.80
2022-07-25T12:25:36.952Z,6.15
2022-07-25T12:28:05.822Z,6.13
2022-07-25T12:30:34.181Z,6.05
2022-07-25T12:33:01.744Z,6.95
2022-07-25T12:35:29.643Z,5.90
2022-07-25T12:37:56.617Z,6.25
2022-07-25T12:40:24.926Z,5.82
2022-07-25T12:42:51.946Z,5.85
2022-07-25T12:45:18.855Z,6.07
2022-07-25T12:47:47.777Z,5.72
2022-07-25T12:50:16.577Z,5.63
2022-07-25T12:52:44.828Z,5.93
2022-07-25T12:55:18.400Z,5.68
2022-07-25T12:57:46.391Z,6.25
2022-07-25T13:00:17.799Z,6.10
2022-07-25T13:02:44.990Z,6.32
2022-07-25T13:05:12.201Z,6.65
2022-07-25T13:07:39.554Z,6.95
2022-07-25T13:10:07.323Z,6.43
2022-07-25T13:12:34.381Z,7.00
2022-07-25T13:15:01.754Z,6.53
2022-07-25T13:17:28.719Z,6.65
2022-07-25T13:19:57.247Z,6.55
2022-07-25T13:22:25.933Z,6.72
2022-07-25T13:24:54.651Z,6.10
2022-07-25T13:27:22.856Z,6.72
2022-07-25T13:29:55.017Z,6.60
2022-07-25T13:32:23.011Z,7.18
2022-07-25T13:34:52.319Z,6.63
2022-07-25T13:37:19.241Z,6.03
2022-07-25T13:39:46.332Z,6.25
2022-07-25T13:42:13.421Z,6.43
2022-07-25T13:44:40.789Z,5.78
2022-07-25T13:47:07.755Z,5.57
2022-07-25T13:49:37.673Z,5.68
2022-07-25T13:52:05.015Z,6.57
2022-07-25T13:54:32.522Z,5.60
2022-07-25T13:56:59.486Z,5.55
2022-07-25T13:59:26.390Z,5.68
2022-07-25T14:01:53.353Z,5.80
2022-07-25T14:04:20.359Z,6.18
2022-07-25T14:06:51.860Z,5.70
2022-07-25T14:09:22.255Z,6.13
2022-07-25T14:11:49.573Z,5.38
2022-07-25T14:14:17.121Z,5.93
2022-07-25T14:16:44.731Z,5.97
2022-07-25T14:19:11.778Z,6.00
2022-07-25T14:21:39.024Z,5.80
2022-07-25T14:24:07.103Z,6.38
2022-07-25T14:26:35.569Z,6.55
2022-07-25T14:29:03.080Z,6.30
2022-07-25T14:31:30.357Z,7.05
2022-07-25T14:33:58.058Z,6.50
2022-07-25T14:36:24.957Z,7.20
2022-07-25T14:38:51.831Z,6.50
2022-07-25T14:41:19.616Z,7.72
2022-07-25T14:43:47.003Z,6.32
2022-07-25T14:46:15.984Z,6.80
2022-07-25T14:48:43.023Z,6.95
2022-07-25T14:51:09.910Z,7.00
2022-07-25T14:53:37.604Z,6.78
2022-07-25T14:56:06.090Z,6.40
2022-07-25T14:58:34.077Z,7.60
2022-07-25T15:01:01.404Z,7.43
2022-07-25T15:03:28.425Z,7.43
2022-07-25T15:05:56.275Z,7.05
2022-07-25T15:08:25.209Z,6.88
2022-07-25T15:10:53.126Z,7.22
2022-07-25T15:13:30.994Z,7.35
2022-07-25T15:16:00.690Z,7.40
2022-07-25T15:18:28.318Z,7.65
2022-07-25T15:20:55.423Z,6.97
2022-07-25T15:23:28.623Z,7.07
2022-07-25T15:26:02.257Z,7.70
2022-07-25T15:28:32.870Z,7.32
2022-07-25T15:31:00.513Z,7.00
2022-07-25T15:33:27.719Z,7.03
2022-07-25T15:35:54.925Z,7.88
2022-07-25T15:38:24.155Z,7.10
2022-07-25T15:40:51.551Z,6.75
2022-07-25T15:43:19.999Z,7.45
2022-07-25T15:45:47.538Z,6.85
2022-07-25T15:48:16.709Z,6.72
2022-07-25T15:50:48.119Z,7.57
2022-07-25T15:53:15.925Z,7.05
2022-07-25T15:55:43.164Z,6.90
2022-07-25T15:58:11.561Z,7.03
2022-07-25T16:00:39.898Z,7.40
2022-07-25T16:03:08.046Z,6.85
2022-07-25T16:05:36.000Z,7.25
2022-07-25T16:08:03.519Z,8.05
2022-07-25T16:10:33.194Z,7.68
2022-07-25T16:13:02.115Z,7.15
2022-07-25T16:15:29.521Z,7.47
2022-07-25T16:18:02.127Z,6.82
2022-07-25T16:20:31.829Z,6.68
2022-07-25T16:22:59.851Z,6.80
2022-07-25T16:25:28.585Z,7.63
2022-07-25T16:27:58.374Z,7.07
2022-07-25T16:30:25.852Z,7.05
2022-07-25T16:32:54.312Z,7.50
2022-07-25T16:35:22.388Z,7.28
2022-07-25T16:37:49.270Z,7.95
2022-07-25T16:40:16.407Z,8.40
2022-07-25T16:42:43.610Z,6.65
2022-07-25T16:45:11.986Z,7.68
2022-07-25T16:47:40.951Z,6.95
2022-07-25T16:50:08.648Z,7.30
2022-07-25T16:52:35.547Z,7.78
2022-07-25T16:55:02.575Z,7.28
2022-07-25T16:57:30.042Z,7.72
2022-07-25T16:59:56.902Z,9.32
2022-07-25T17:02:29.213Z,8.90
2022-07-25T17:04:57.080Z,8.48
2022-07-25T17:07:24.567Z,9.00
2022-07-25T17:09:51.723Z,7.80
2022-07-25T17:12:19.275Z,7.75
2022-07-25T17:14:46.464Z,8.02
2022-07-25T17:17:13.734Z,8.27
2022-07-25T17:19:40.760Z,7.63
2022-07-25T17:22:09.427Z,7.45
2022-07-25T17:24:37.907Z,7.95
2022-07-25T17:27:06.521Z,7.70
2022-07-25T17:29:33.425Z,8.65
2022-07-25T17:32:00.379Z,8.07
2022-07-25T17:34:27.396Z,7.85
2022-07-25T17:36:55.251Z,7.85
2022-07-25T17:39:22.841Z,7.82
2022-07-25T17:41:52.475Z,7.65
2022-07-25T17:44:20.970Z,7.72
2022-07-25T17:46:49.985Z,8.48
2022-07-25T17:49:18.879Z,7.47
2022-07-25T17:51:45.909Z,8.23
2022-07-25T17:54:12.777Z,7.70
2022-07-25T17:56:39.723Z,8.07
2022-07-25T17:59:08.273Z,8.43
2022-07-25T18:01:35.292Z,8.27
2022-07-25T18:04:02.239Z,8.48
2022-07-25T18:06:30.144Z,8.18
2022-07-25T18:08:58.271Z,7.90
2022-07-25T18:11:25.265Z,8.45
2022-07-25T18:13:52.405Z,8.85
2022-07-25T18:16:19.394Z,8.65
2022-07-25T18:18:47.323Z,8.38
2022-07-25T18:21:14.734Z,8.77
2022-07-25T18:23:41.574Z,8.52
2022-07-25T18:26:09.539Z,8.82
2022-07-25T18:28:36.589Z,8.82
2022-07-25T18:31:04.557Z,8.70
2022-07-25T18:33:31.671Z,8.77
2022-07-25T18:36:01.847Z,9.25
2022-07-25T18:38:32.590Z,8.98
2022-07-25T18:41:26.498Z,9.60
2022-07-25T18:43:47.350Z,5.00
2022-07-25T18:46:16.181Z,5.20
2022-07-25T18:48:46.001Z,4.88
2022-07-25T18:51:13.584Z,4.63
2022-07-25T18:53:42.834Z,4.50
2022-07-25T18:56:13.025Z,4.78
2022-07-25T18:58:41.331Z,5.45
2022-07-25T19:01:09.502Z,5.43
2022-07-25T19:03:37.674Z,5.18
2022-07-25T19:06:07.883Z,5.13
2022-07-25T19:08:35.352Z,5.07
2022-07-25T19:11:03.277Z,5.05
2022-07-25T19:13:48.851Z,4.47
2022-07-25T19:16:16.882Z,4.65
2022-07-25T19:18:43.827Z,5.47
2022-07-25T19:21:11.921Z,4.88
2022-07-25T19:23:38.835Z,4.70
2022-07-25T19:26:06.559Z,4.80
2022-07-25T19:28:35.484Z,4.40
2022-07-25T19:31:03.604Z,4.82
2022-07-25T19:33:34.695Z,5.20
2022-07-25T19:36:05.045Z,5.60
2022-07-25T19:38:32.803Z,5.20
2022-07-25T19:41:00.359Z,5.03
2022-07-25T19:43:28.208Z,4.97
2022-07-25T19:45:56.045Z,5.03
2022-07-25T19:48:24.238Z,5.28
2022-07-25T19:50:52.443Z,5.40
2022-07-25T19:53:19.505Z,5.93
2022-07-25T19:55:46.754Z,5.72
2022-07-25T19:58:13.716Z,5.38
2022-07-25T20:00:40.831Z,6.18
2022-07-25T20:03:07.711Z,5.85
2022-07-25T20:05:34.611Z,5.55
2022-07-25T20:08:01.496Z,5.57
2022-07-25T20:10:29.421Z,5.65
2022-07-25T20:13:01.090Z,5.50
2022-07-25T20:15:29.130Z,5.43
2022-07-25T20:17:56.893Z,5.55
2022-07-25T20:20:24.834Z,5.10
2022-07-25T20:22:51.959Z,5.57
2022-07-25T20:25:18.878Z,5.25
2022-07-25T20:27:45.842Z,5.57
2022-07-25T20:30:13.337Z,5.50
2022-07-25T20:32:40.219Z,5.00
2022-07-25T20:35:07.860Z,5.60
2022-07-25T20:37:35.693Z,5.28
2022-07-25T20:40:02.823Z,5.75
2022-07-25T20:42:29.747Z,5.43
2022-07-25T20:44:57.088Z,6.22
2022-07-25T20:47:25.037Z,5.70
2022-07-25T20:49:51.912Z,5.90
2022-07-25T20:52:19.096Z,5.65
2022-07-25T20:54:45.985Z,4.90
2022-07-25T20:57:13.938Z,5.72
2022-07-25T20:59:40.921Z,5.15
2022-07-25T21:02:07.884Z,5.60
2022-07-25T21:04:34.821Z,5.30
2022-07-25T21:07:01.666Z,5.63
2022-07-25T21:09:32.840Z,5.35
2022-07-25T21:12:01.178Z,5.30
2022-07-25T21:14:28.742Z,5.47
2022-07-25T21:16:55.691Z,5.88
2022-07-25T21:19:22.626Z,5.18
2022-07-25T21:21:49.483Z,5.35
2022-07-25T21:24:16.644Z,5.65
2022-07-25T21:26:43.491Z,5.40
2022-07-25T21:29:10.863Z,6.00
2022-07-25T21:31:38.505Z,5.45
2022-07-25T21:34:05.511Z,5.78
2022-07-25T21:36:32.609Z,5.53
2022-07-25T21:39:00.112Z,5.50
2022-07-25T21:41:27.007Z,5.45
2022-07-25T21:43:53.851Z,5.85
2022-07-25T21:46:20.812Z,6.45
2022-07-25T21:49:06.687Z,7.05
2022-07-25T21:51:40.216Z,6.47
2022-07-25T21:54:08.039Z,6.18
2022-07-25T21:56:34.903Z,5.75
2022-07-25T21:59:02.196Z,5.07
2022-07-25T22:01:29.302Z,5.15
2022-07-25T22:03:56.324Z,5.80
2022-07-25T22:06:23.389Z,4.63
2022-07-25T22:08:50.484Z,4.93
2022-07-25T22:11:38.288Z,5.22
2022-07-25T22:14:04.374Z,4.93
2022-07-25T22:16:31.522Z,5.32
2022-07-25T22:18:58.449Z,5.97
2022-07-25T22:21:25.798Z,5.82
2022-07-25T22:23:53.110Z,7.43
2022-07-25T22:26:20.464Z,6.78
2022-07-25T22:28:48.910Z,6.00
2022-07-25T22:31:17.459Z,6.07
2022-07-25T22:33:44.357Z,6.65
2022-07-25T22:36:11.675Z,6.68
2022-07-25T22:38:38.576Z,5.43
2022-07-25T22:41:05.740Z,6.25
2022-07-25T22:43:58.419Z,6.90
2022-07-25T22:46:19.589Z,5.70
2022-07-25T22:48:47.989Z,6.00
2022-07-25T22:51:15.053Z,6.38
2022-07-25T22:53:41.951Z,6.43
2022-07-25T22:56:08.881Z,6.30
2022-07-25T22:58:36.009Z,6.35
2022-07-25T23:01:02.911Z,6.35
2022-07-25T23:03:31.520Z,6.75
2022-07-25T23:06:00.232Z,6.40
2022-07-25T23:08:27.289Z,6.22
2022-07-25T23:10:54.308Z,6.05
2022-07-25T23:13:21.928Z,6.18
2022-07-25T23:15:50.288Z,6.13
2022-07-25T23:18:19.819Z,6.00
2022-07-25T23:20:46.725Z,5.85
2022-07-25T23:23:14.342Z,5.93
2022-07-25T23:25:41.365Z,5.97
2022-07-25T23:28:08.225Z,5.72
2022-07-25T23:30:40.297Z,5.53
2022-07-25T23:33:08.338Z,5.90
2022-07-25T23:35:35.501Z,6.45
2022-07-25T23:38:02.554Z,5.78
2022-07-25T23:40:30.034Z,6.13
2022-07-25T23:42:57.221Z,5.78
2022-07-25T23:45:27.562Z,6.03
2022-07-25T23:47:55.666Z,5.50
2022-07-25T23:50:24.266Z,5.97
2022-07-25T23:52:51.857Z,5.70
2022-07-25T23:55:19.027Z,5.63
2022-07-25T23:57:46.499Z,5.90
